Time;durP1;ratioP1;P1;durP2;ratioP2;P2;SDS_P1;SDS_P2;PMS_P1;PMS_P2;Temp;Humidity;BMP_temperature;BMP_pressure;BME280_temperature;BME280_humidity;BME280_pressure;Samples;Min_cycle;Max_cycle;Signal;HPM_P1;HPM_P2
2023/03/17 00:01:39;;;;;;;3.75;1.05;;;;;;;;;;5025107;28;20506;-60
2023/03/17 00:04:06;;;;;;;2.85;0.93;;;;;;;;;;5025323;28;20087;-59
2023/03/17 00:06:34;;;;;;;5.18;0.98;;;;;;;;;;5024093;28;20037;-60
2023/03/17 00:09:00;;;;;;;2.92;0.80;;;;;;;;;;5022896;28;20398;-60
2023/03/17 00:11:27;;;;;;;6.63;1.25;;;;;;;;;;5021659;28;20056;-59
2023/03/17 00:13:54;;;;;;;5.00;1.33;;;;;;;;;;5026484;28;20326;-61
2023/03/17 00:16:22;;;;;;;5.57;1.50;;;;;;;;;;5025001;28;20072;-59
2023/03/17 00:18:50;;;;;;;4.82;1.17;;;;;;;;;;5029543;28;20485;-61
2023/03/17 00:21:21;;;;;;;3.60;1.08;;;;;;;;;;5024245;28;20064;-59
2023/03/17 00:23:50;;;;;;;2.90;1.00;;;;;;;;;;5025423;28;20041;-60
2023/03/17 00:26:17;;;;;;;5.53;0.95;;;;;;;;;;5023176;28;20045;-59
2023/03/17 00:28:44;;;;;;;2.08;0.70;;;;;;;;;;5023494;28;20406;-59
2023/03/17 00:31:19;;;;;;;4.38;0.90;;;;;;;;;;5025667;28;20039;-58
2023/03/17 00:33:46;;;;;;;4.20;0.90;;;;;;;;;;5014420;28;20043;-58
2023/03/17 00:36:33;;;;;;;2.85;0.90;;;;;;;;;;5023691;28;20033;-59
2023/03/17 00:39:00;;;;;;;4.70;0.90;;;;;;;;;;5024340;28;20168;-61
2023/03/17 00:41:28;;;;;;;3.20;1.00;;;;;;;;;;5022033;28;20124;-59
2023/03/17 00:43:54;;;;;;;4.15;1.00;;;;;;;;;;5023083;28;20043;-60
2023/03/17 00:46:40;;;;;;;2.67;1.08;;;;;;;;;;5024095;28;20037;-60
2023/03/17 00:49:17;;;;;;;3.95;1.08;;;;;;;;;;5022548;28;20175;-60
2023/03/17 00:51:44;;;;;;;2.97;1.00;;;;;;;;;;5026153;28;20049;-63
2023/03/17 00:54:11;;;;;;;7.05;1.13;;;;;;;;;;5027866;28;20060;-61
2023/03/17 00:56:39;;;;;;;5.65;1.27;;;;;;;;;;5026256;28;20505;-60
2023/03/17 00:59:14;;;;;;;3.70;1.05;;;;;;;;;;5026130;28;20106;-60
2023/03/17 01:01:41;;;;;;;4.45;1.00;;;;;;;;;;5025997;28;20049;-61
2023/03/17 01:04:09;;;;;;;5.32;1.30;;;;;;;;;;5027455;28;20052;-60
2023/03/17 01:06:36;;;;;;;5.03;1.17;;;;;;;;;;5025949;28;20143;-62
2023/03/17 01:09:03;;;;;;;4.85;1.17;;;;;;;;;;5026489;28;20036;-62
2023/03/17 01:11:30;;;;;;;4.07;1.27;;;;;;;;;;5027726;28;20041;-60
2023/03/17 01:13:57;;;;;;;5.13;1.35;;;;;;;;;;5026393;28;20025;-62
2023/03/17 01:16:25;;;;;;;12.77;1.50;;;;;;;;;;5026107;28;20033;-59
2023/03/17 01:18:52;;;;;;;6.32;1.23;;;;;;;;;;5027601;28;20045;-60
2023/03/17 01:21:19;;;;;;;9.80;1.40;;;;;;;;;;5027180;28;20541;-65
2023/03/17 01:23:46;;;;;;;4.53;1.38;;;;;;;;;;5024827;28;20037;-66
2023/03/17 01:26:12;;;;;;;4.90;1.25;;;;;;;;;;5026368;28;20029;-60
2023/03/17 01:28:39;;;;;;;3.25;1.23;;;;;;;;;;5021308;28;22379;-60
2023/03/17 01:31:06;;;;;;;6.75;1.42;;;;;;;;;;5026251;28;20364;-63
2023/03/17 01:33:32;;;;;;;4.10;1.35;;;;;;;;;;5023011;28;20050;-61
2023/03/17 01:35:59;;;;;;;8.30;1.80;;;;;;;;;;5028391;28;20525;-63
2023/03/17 01:38:25;;;;;;;3.97;1.40;;;;;;;;;;5027090;28;20051;-62
2023/03/17 01:40:53;;;;;;;7.28;1.40;;;;;;;;;;5025253;28;20065;-60
2023/03/17 01:43:28;;;;;;;5.85;1.60;;;;;;;;;;5024511;28;20061;-63
2023/03/17 01:46:13;;;;;;;4.18;1.50;;;;;;;;;;5026641;28;21863;-61
2023/03/17 01:48:39;;;;;;;6.15;1.30;;;;;;;;;;5025187;28;20053;-60
2023/03/17 01:51:07;;;;;;;3.85;1.17;;;;;;;;;;5026785;28;20841;-62
2023/03/17 01:53:35;;;;;;;8.77;1.60;;;;;;;;;;5027701;28;20064;-62
2023/03/17 01:56:03;;;;;;;5.07;1.70;;;;;;;;;;5027710;28;20409;-63
2023/03/17 01:58:31;;;;;;;7.43;1.85;;;;;;;;;;5028200;28;20036;-60
2023/03/17 02:00:57;;;;;;;4.97;1.40;;;;;;;;;;5026912;28;20401;-61
2023/03/17 02:03:24;;;;;;;3.70;1.30;;;;;;;;;;5026663;28;20037;-62
2023/03/17 02:05:51;;;;;;;2.90;1.38;;;;;;;;;;5026716;28;20557;-60
2023/03/17 02:08:18;;;;;;;6.95;2.03;;;;;;;;;;5027937;28;20033;-62
2023/03/17 02:10:46;;;;;;;4.68;1.90;;;;;;;;;;5025368;28;20041;-62
2023/03/17 02:13:13;;;;;;;5.43;1.90;;;;;;;;;;5024697;28;20053;-63
2023/03/17 02:15:43;;;;;;;5.93;1.95;;;;;;;;;;5026014;28;20069;-61
2023/03/17 02:18:12;;;;;;;4.20;1.80;;;;;;;;;;5024904;28;20064;-59
2023/03/17 02:20:39;;;;;;;9.63;1.98;;;;;;;;;;5023927;28;20045;-60
2023/03/17 02:23:06;;;;;;;9.45;2.38;;;;;;;;;;5028518;28;20159;-61
2023/03/17 02:25:34;;;;;;;4.57;1.55;;;;;;;;;;5023521;28;20075;-60
2023/03/17 02:28:15;;;;;;;4.00;1.40;;;;;;;;;;5022614;28;20042;-62
2023/03/17 02:30:42;;;;;;;3.53;1.30;;;;;;;;;;5026699;28;20042;-62
2023/03/17 02:33:09;;;;;;;4.80;1.27;;;;;;;;;;5024888;28;20091;-62
2023/03/17 02:35:36;;;;;;;5.85;1.80;;;;;;;;;;5024978;28;20053;-60
2023/03/17 02:38:02;;;;;;;3.83;1.30;;;;;;;;;;5025036;28;20128;-61
2023/03/17 02:40:29;;;;;;;4.47;1.75;;;;;;;;;;5025526;28;20507;-62
2023/03/17 02:42:56;;;;;;;3.97;1.40;;;;;;;;;;5025757;28;20094;-61
2023/03/17 02:45:22;;;;;;;5.82;1.73;;;;;;;;;;5023902;28;20091;-65
2023/03/17 02:47:50;;;;;;;4.35;1.45;;;;;;;;;;5025535;28;20123;-63
2023/03/17 02:50:18;;;;;;;4.60;1.50;;;;;;;;;;5023866;28;20573;-62
2023/03/17 02:52:45;;;;;;;5.20;1.55;;;;;;;;;;5025792;28;20057;-62
2023/03/17 02:55:11;;;;;;;5.13;1.63;;;;;;;;;;5027894;28;20060;-61
2023/03/17 02:57:38;;;;;;;4.45;1.40;;;;;;;;;;5023923;28;20037;-63
2023/03/17 03:00:05;;;;;;;4.25;1.67;;;;;;;;;;5021173;28;20079;-62
2023/03/17 03:02:32;;;;;;;5.70;1.75;;;;;;;;;;5024953;28;20041;-60
2023/03/17 03:04:58;;;;;;;3.92;1.52;;;;;;;;;;5025974;28;20045;-61
2023/03/17 03:07:25;;;;;;;5.13;1.65;;;;;;;;;;5025483;28;20049;-62
2023/03/17 03:09:51;;;;;;;4.03;1.38;;;;;;;;;;5024950;28;20083;-62
2023/03/17 03:12:18;;;;;;;7.13;2.03;;;;;;;;;;5025210;28;20126;-64
2023/03/17 03:14:45;;;;;;;12.63;1.80;;;;;;;;;;5023452;28;20338;-60
2023/03/17 03:17:11;;;;;;;5.13;1.63;;;;;;;;;;5024546;28;20041;-63
2023/03/17 03:19:38;;;;;;;6.45;1.80;;;;;;;;;;5025496;28;20054;-62
2023/03/17 03:22:05;;;;;;;4.40;1.65;;;;;;;;;;5024495;28;20038;-61
2023/03/17 03:24:32;;;;;;;6.43;1.50;;;;;;;;;;5023092;28;20596;-63
2023/03/17 03:26:58;;;;;;;3.72;1.35;;;;;;;;;;5025133;28;20137;-64
2023/03/17 03:29:25;;;;;;;7.10;1.67;;;;;;;;;;5023877;28;20596;-62
2023/03/17 03:31:52;;;;;;;4.20;1.60;;;;;;;;;;5025105;28;20085;-63
2023/03/17 03:34:19;;;;;;;9.27;1.85;;;;;;;;;;5022720;28;20409;-62
2023/03/17 03:36:46;;;;;;;4.65;1.80;;;;;;;;;;5026404;28;20626;-61
2023/03/17 03:39:12;;;;;;;8.15;2.50;;;;;;;;;;5024591;28;20033;-63
2023/03/17 03:41:40;;;;;;;13.90;2.85;;;;;;;;;;5024741;28;20098;-61
2023/03/17 03:44:06;;;;;;;9.13;2.42;;;;;;;;;;5024627;28;20041;-62
2023/03/17 03:46:33;;;;;;;9.10;1.90;;;;;;;;;;5023271;28;20041;-63
2023/03/17 03:49:00;;;;;;;6.35;1.83;;;;;;;;;;5024699;28;20526;-63
2023/03/17 03:51:26;;;;;;;11.05;2.30;;;;;;;;;;5022418;28;20044;-61
2023/03/17 03:53:53;;;;;;;7.57;1.90;;;;;;;;;;5024316;28;20068;-60
2023/03/17 03:56:20;;;;;;;6.32;2.00;;;;;;;;;;5024891;28;20091;-62
2023/03/17 03:58:47;;;;;;;13.23;2.25;;;;;;;;;;5025182;28;20135;-60
2023/03/17 04:01:13;;;;;;;8.38;1.75;;;;;;;;;;5028367;28;20120;-62
2023/03/17 04:03:40;;;;;;;4.60;1.73;;;;;;;;;;5025809;28;20136;-61
2023/03/17 04:06:07;;;;;;;5.22;1.52;;;;;;;;;;5028793;28;20036;-62
2023/03/17 04:08:33;;;;;;;6.75;2.13;;;;;;;;;;5036958;28;20042;-62
2023/03/17 04:11:00;;;;;;;6.95;1.70;;;;;;;;;;5019155;28;20037;-60
2023/03/17 04:13:27;;;;;;;9.73;1.80;;;;;;;;;;5020784;28;20052;-61
2023/03/17 04:15:53;;;;;;;5.53;1.80;;;;;;;;;;5024835;28;20467;-60
2023/03/17 04:18:20;;;;;;;5.45;1.73;;;;;;;;;;5021427;28;20044;-63
2023/03/17 04:20:46;;;;;;;12.20;2.05;;;;;;;;;;5024380;28;20045;-62
2023/03/17 04:23:13;;;;;;;8.98;2.80;;;;;;;;;;5023641;28;20145;-61
2023/03/17 04:25:40;;;;;;;9.98;2.05;;;;;;;;;;5032769;28;20428;-62
2023/03/17 04:28:07;;;;;;;6.55;2.33;;;;;;;;;;5021922;28;20494;-62
2023/03/17 04:30:34;;;;;;;11.82;2.20;;;;;;;;;;5024314;28;20033;-63
2023/03/17 04:33:01;;;;;;;7.65;2.03;;;;;;;;;;5023246;28;20087;-60
2023/03/17 04:35:27;;;;;;;9.85;2.10;;;;;;;;;;5021850;28;20053;-61
2023/03/17 04:37:54;;;;;;;15.40;2.00;;;;;;;;;;5023047;28;20041;-63
2023/03/17 04:40:21;;;;;;;10.80;2.53;;;;;;;;;;5024031;28;20083;-68
2023/03/17 04:42:47;;;;;;;12.07;2.33;;;;;;;;;;5024780;28;20100;-62
2023/03/17 04:45:15;;;;;;;10.20;2.90;;;;;;;;;;5024081;28;20460;-64
2023/03/17 04:47:42;;;;;;;6.25;2.63;;;;;;;;;;5022906;28;20092;-61
2023/03/17 04:50:09;;;;;;;8.85;2.85;;;;;;;;;;5035962;28;20591;-63
2023/03/17 04:52:36;;;;;;;7.15;2.45;;;;;;;;;;5024390;28;20490;-62
2023/03/17 04:55:04;;;;;;;8.82;2.00;;;;;;;;;;5023110;28;20144;-63
2023/03/17 04:57:30;;;;;;;8.75;2.60;;;;;;;;;;5023821;28;20045;-61
2023/03/17 04:59:57;;;;;;;6.50;2.20;;;;;;;;;;5024836;28;20047;-61
2023/03/17 05:02:23;;;;;;;7.60;2.00;;;;;;;;;;5023572;28;20064;-63
2023/03/17 05:04:50;;;;;;;7.28;2.20;;;;;;;;;;5023379;28;20329;-62
2023/03/17 05:07:17;;;;;;;5.30;2.15;;;;;;;;;;5024733;28;20144;-61
2023/03/17 05:09:43;;;;;;;10.13;2.55;;;;;;;;;;5021473;28;20120;-65
2023/03/17 05:12:10;;;;;;;8.32;2.45;;;;;;;;;;5023917;28;20041;-60
2023/03/17 05:14:37;;;;;;;11.90;2.80;;;;;;;;;;5023199;28;20041;-60
2023/03/17 05:17:03;;;;;;;9.38;2.75;;;;;;;;;;5024014;28;20096;-63
2023/03/17 05:19:30;;;;;;;10.20;2.42;;;;;;;;;;5021206;28;20072;-59
2023/03/17 05:21:57;;;;;;;7.47;2.28;;;;;;;;;;5033693;28;20516;-61
2023/03/17 05:24:23;;;;;;;9.38;2.45;;;;;;;;;;5023282;28;20132;-63
2023/03/17 05:26:50;;;;;;;9.00;2.90;;;;;;;;;;5024092;28;20033;-63
2023/03/17 05:29:17;;;;;;;6.22;2.22;;;;;;;;;;5024360;28;20049;-61
2023/03/17 05:31:43;;;;;;;6.93;2.35;;;;;;;;;;5023781;28;20025;-64
2023/03/17 05:34:10;;;;;;;8.30;2.15;;;;;;;;;;5021247;28;20044;-61
2023/03/17 05:36:37;;;;;;;6.15;2.70;;;;;;;;;;5026608;28;20105;-60
2023/03/17 05:39:04;;;;;;;9.00;2.65;;;;;;;;;;5026258;28;20045;-64
2023/03/17 05:41:30;;;;;;;11.18;3.10;;;;;;;;;;5026514;28;20666;-61
2023/03/17 05:43:57;;;;;;;7.55;2.42;;;;;;;;;;5024024;28;20150;-58
2023/03/17 05:46:24;;;;;;;17.13;2.85;;;;;;;;;;5022360;28;20133;-61
2023/03/17 05:48:50;;;;;;;8.52;2.78;;;;;;;;;;5026837;28;20037;-61
2023/03/17 05:51:17;;;;;;;9.23;2.40;;;;;;;;;;5011616;28;20512;-61
2023/03/17 05:53:44;;;;;;;16.17;3.92;;;;;;;;;;5028426;28;20099;-63
2023/03/17 05:56:12;;;;;;;17.70;3.30;;;;;;;;;;5014948;28;20084;-61
2023/03/17 05:58:38;;;;;;;8.90;3.33;;;;;;;;;;5019930;28;20515;-60
2023/03/17 06:01:05;;;;;;;10.23;3.17;;;;;;;;;;5021817;28;20037;-61
2023/03/17 06:03:32;;;;;;;8.43;3.30;;;;;;;;;;5025721;28;20047;-61
2023/03/17 06:05:58;;;;;;;6.50;3.10;;;;;;;;;;5025908;28;20565;-60
2023/03/17 06:08:25;;;;;;;11.18;3.10;;;;;;;;;;5027140;28;20128;-61
2023/03/17 06:10:52;;;;;;;8.60;3.28;;;;;;;;;;5026252;28;20045;-62
2023/03/17 06:13:18;;;;;;;7.20;2.55;;;;;;;;;;5035547;28;20040;-60
2023/03/17 06:15:48;;;;;;;13.10;3.63;;;;;;;;;;5019062;28;20475;-60
2023/03/17 06:18:14;;;;;;;10.75;3.72;;;;;;;;;;5007268;28;20045;-62
2023/03/17 06:20:41;;;;;;;13.70;2.92;;;;;;;;;;5026183;28;20049;-60
2023/03/17 06:23:08;;;;;;;7.43;2.42;;;;;;;;;;5026664;28;20072;-61
2023/03/17 06:25:35;;;;;;;6.38;2.35;;;;;;;;;;5027341;28;20044;-62
2023/03/17 06:28:04;;;;;;;11.73;2.75;;;;;;;;;;5025039;28;20042;-60
2023/03/17 06:30:32;;;;;;;8.18;2.08;;;;;;;;;;5026239;28;20045;-61
2023/03/17 06:32:59;;;;;;;17.50;2.60;;;;;;;;;;5027007;28;20040;-60
2023/03/17 06:35:26;;;;;;;18.38;2.28;;;;;;;;;;5024773;28;20093;-62
2023/03/17 06:37:53;;;;;;;16.63;2.47;;;;;;;;;;5024985;28;20064;-60
2023/03/17 06:40:20;;;;;;;20.23;2.97;;;;;;;;;;5026926;28;20066;-67
2023/03/17 06:42:47;;;;;;;10.43;2.80;;;;;;;;;;5026484;28;20072;-61
2023/03/17 06:45:13;;;;;;;11.80;2.45;;;;;;;;;;5027641;28;20106;-61
2023/03/17 06:47:40;;;;;;;7.18;2.58;;;;;;;;;;5023572;28;20477;-62
2023/03/17 06:50:11;;;;;;;6.07;2.25;;;;;;;;;;5037136;28;20049;-60
2023/03/17 06:52:38;;;;;;;5.18;1.77;;;;;;;;;;5036550;28;20382;-60
2023/03/17 06:55:06;;;;;;;16.13;2.35;;;;;;;;;;5026102;28;20139;-60
2023/03/17 06:57:33;;;;;;;11.93;2.47;;;;;;;;;;5025330;28;20135;-60
2023/03/17 06:59:59;;;;;;;5.97;2.03;;;;;;;;;;5037274;28;20045;-58
2023/03/17 07:02:26;;;;;;;6.45;2.20;;;;;;;;;;5017488;28;20050;-60
2023/03/17 07:04:53;;;;;;;7.43;2.25;;;;;;;;;;5026080;28;20037;-60
2023/03/17 07:07:20;;;;;;;4.82;2.20;;;;;;;;;;5025324;28;20079;-60
2023/03/17 07:09:46;;;;;;;10.25;2.95;;;;;;;;;;5024275;28;20087;-58
2023/03/17 07:12:13;;;;;;;13.52;2.20;;;;;;;;;;5026646;28;20078;-64
2023/03/17 07:14:40;;;;;;;5.60;2.17;;;;;;;;;;5025222;28;20037;-60
2023/03/17 07:17:07;;;;;;;11.23;2.17;;;;;;;;;;5002427;28;20037;-60
2023/03/17 07:19:34;;;;;;;9.85;1.90;;;;;;;;;;5023084;28;20033;-60
2023/03/17 07:22:00;;;;;;;5.22;1.80;;;;;;;;;;5025699;28;20039;-62
2023/03/17 07:24:27;;;;;;;6.20;2.10;;;;;;;;;;5024451;28;20079;-60
2023/03/17 07:26:54;;;;;;;5.65;2.30;;;;;;;;;;5023477;28;20037;-62
2023/03/17 07:29:21;;;;;;;12.52;2.92;;;;;;;;;;5024879;28;20048;-62
2023/03/17 07:31:48;;;;;;;11.50;2.47;;;;;;;;;;5025076;28;20061;-61
2023/03/17 07:34:15;;;;;;;7.63;1.77;;;;;;;;;;5024924;28;20128;-61
2023/03/17 07:36:42;;;;;;;7.90;2.33;;;;;;;;;;5024754;28;20049;-61
2023/03/17 07:39:09;;;;;;;10.25;2.33;;;;;;;;;;5025520;28;21694;-61
2023/03/17 07:41:36;;;;;;;11.95;2.30;;;;;;;;;;5024387;28;20053;-62
2023/03/17 07:44:03;;;;;;;19.45;2.58;;;;;;;;;;5025468;28;20045;-63
2023/03/17 07:46:30;;;;;;;16.80;3.13;;;;;;;;;;5025048;28;20044;-61
2023/03/17 07:48:57;;;;;;;7.95;2.20;;;;;;;;;;5023991;28;20037;-63
2023/03/17 07:51:26;;;;;;;5.72;1.95;;;;;;;;;;5036557;28;20037;-61
2023/03/17 07:54:01;;;;;;;5.78;2.03;;;;;;;;;;5024954;28;20036;-60
2023/03/17 07:56:29;;;;;;;9.50;2.08;;;;;;;;;;5022011;28;20053;-61
2023/03/17 07:58:57;;;;;;;10.77;2.30;;;;;;;;;;5024569;28;20135;-60
2023/03/17 08:01:25;;;;;;;7.70;2.17;;;;;;;;;;5024967;28;20432;-62
2023/03/17 08:03:52;;;;;;;8.50;1.98;;;;;;;;;;5024294;28;20900;-62
2023/03/17 08:06:19;;;;;;;13.27;2.05;;;;;;;;;;5023085;28;21604;-63
2023/03/17 08:08:45;;;;;;;5.28;1.73;;;;;;;;;;5024553;28;20063;-62
2023/03/17 08:11:12;;;;;;;19.77;2.33;;;;;;;;;;5035438;28;20029;-60
2023/03/17 08:13:39;;;;;;;5.20;1.55;;;;;;;;;;5023162;28;20037;-60
2023/03/17 08:16:06;;;;;;;4.70;1.67;;;;;;;;;;5024625;28;20053;-60
2023/03/17 08:18:32;;;;;;;6.40;1.77;;;;;;;;;;5023870;28;20615;-61
2023/03/17 08:20:59;;;;;;;5.30;1.70;;;;;;;;;;5024289;28;20068;-60
2023/03/17 08:23:26;;;;;;;4.32;1.58;;;;;;;;;;5024507;28;20049;-59
2023/03/17 08:25:57;;;;;;;15.05;1.60;;;;;;;;;;5025838;28;20041;-60
2023/03/17 08:28:23;;;;;;;4.00;1.70;;;;;;;;;;5023422;28;20045;-60
2023/03/17 08:30:50;;;;;;;5.50;1.52;;;;;;;;;;5025444;28;20756;-60
2023/03/17 08:33:17;;;;;;;6.35;1.77;;;;;;;;;;5025579;28;20247;-61
2023/03/17 08:35:43;;;;;;;4.13;1.63;;;;;;;;;;5022164;28;20592;-62
2023/03/17 08:38:10;;;;;;;4.75;1.50;;;;;;;;;;5022640;28;20336;-60
2023/03/17 08:40:38;;;;;;;7.70;1.90;;;;;;;;;;5025775;28;20095;-60
2023/03/17 08:43:06;;;;;;;5.50;1.60;;;;;;;;;;5025809;28;20029;-62
2023/03/17 08:45:33;;;;;;;4.03;1.10;;;;;;;;;;5025833;28;20036;-60
2023/03/17 08:48:00;;;;;;;3.83;1.30;;;;;;;;;;5028207;28;20113;-61
2023/03/17 08:50:28;;;;;;;5.50;1.55;;;;;;;;;;5027303;28;20045;-61
2023/03/17 08:52:55;;;;;;;6.28;1.45;;;;;;;;;;5025254;28;20072;-62
2023/03/17 08:55:41;;;;;;;4.00;1.08;;;;;;;;;;4998214;28;20084;-60
2023/03/17 08:58:08;;;;;;;4.60;1.38;;;;;;;;;;4997419;28;20840;-60
2023/03/17 09:00:34;;;;;;;7.13;1.60;;;;;;;;;;4995973;28;20248;-60
2023/03/17 09:03:02;;;;;;;5.10;1.55;;;;;;;;;;4996317;28;20038;-61
2023/03/17 09:05:29;;;;;;;3.60;1.48;;;;;;;;;;4996419;28;20038;-61
2023/03/17 09:07:55;;;;;;;2.42;1.00;;;;;;;;;;4996407;28;20052;-61
2023/03/17 09:10:22;;;;;;;3.78;1.30;;;;;;;;;;4997760;28;20041;-62
2023/03/17 09:12:50;;;;;;;3.00;1.23;;;;;;;;;;5000971;28;20049;-60
2023/03/17 09:15:17;;;;;;;4.85;1.70;;;;;;;;;;4999997;28;20104;-60
2023/03/17 09:17:43;;;;;;;2.60;0.98;;;;;;;;;;4997573;28;21318;-60
2023/03/17 09:20:13;;;;;;;5.20;1.60;;;;;;;;;;5000583;28;20414;-62
2023/03/17 09:22:40;;;;;;;4.82;1.48;;;;;;;;;;4997454;28;20487;-60
2023/03/17 09:25:07;;;;;;;4.68;1.73;;;;;;;;;;5000060;28;20042;-60
2023/03/17 09:27:34;;;;;;;3.10;1.48;;;;;;;;;;5021873;28;20060;-62
2023/03/17 09:30:00;;;;;;;4.45;1.55;;;;;;;;;;5028173;28;20117;-60
2023/03/17 09:32:27;;;;;;;9.82;1.42;;;;;;;;;;5026107;28;20103;-60
2023/03/17 09:34:53;;;;;;;4.32;1.65;;;;;;;;;;5026614;28;20717;-61
2023/03/17 09:37:20;;;;;;;4.00;1.40;;;;;;;;;;5027849;28;20045;-62
2023/03/17 09:39:47;;;;;;;3.47;1.45;;;;;;;;;;5024400;28;20033;-61
2023/03/17 09:42:21;;;;;;;3.58;1.42;;;;;;;;;;5028211;28;20887;-61
2023/03/17 09:44:54;;;;;;;2.53;1.23;;;;;;;;;;5020556;28;20051;-60
2023/03/17 09:47:27;;;;;;;10.13;1.30;;;;;;;;;;5025335;28;20603;-62
2023/03/17 09:49:58;;;;;;;5.65;1.52;;;;;;;;;;5026616;28;20049;-61
2023/03/17 09:52:28;;;;;;;3.05;1.13;;;;;;;;;;5026991;28;20045;-60
2023/03/17 09:54:55;;;;;;;3.30;1.35;;;;;;;;;;5025725;28;20080;-60
2023/03/17 09:57:41;;;;;;;2.08;0.70;;;;;;;;;;5024442;28;20049;-58
2023/03/17 10:00:13;;;;;;;2.85;0.95;;;;;;;;;;5027110;28;20052;-60
2023/03/17 10:02:40;;;;;;;4.30;1.38;;;;;;;;;;5024892;28;20045;-62
2023/03/17 10:05:13;;;;;;;4.05;1.30;;;;;;;;;;5027076;28;20126;-63
2023/03/17 10:07:45;;;;;;;2.58;0.90;;;;;;;;;;5026353;28;20048;-61
2023/03/17 10:10:16;;;;;;;3.75;1.45;;;;;;;;;;5028200;28;20041;-59
2023/03/17 10:12:46;;;;;;;4.90;1.48;;;;;;;;;;5025699;28;20037;-61
2023/03/17 10:15:42;;;;;;;3.53;1.10;;;;;;;;;;5026937;28;20057;-63
2023/03/17 10:18:10;;;;;;;6.25;1.33;;;;;;;;;;5000904;28;20769;-62
2023/03/17 10:20:39;;;;;;;3.15;1.00;;;;;;;;;;5025519;28;20393;-59
2023/03/17 10:23:08;;;;;;;2.35;1.17;;;;;;;;;;5025958;28;20227;-58
2023/03/17 10:25:37;;;;;;;3.50;1.40;;;;;;;;;;5025944;28;20034;-60
2023/03/17 10:28:03;;;;;;;6.07;1.17;;;;;;;;;;5023129;28;20063;-63
2023/03/17 10:30:32;;;;;;;7.05;1.48;;;;;;;;;;5026498;28;20076;-61
2023/03/17 10:33:00;;;;;;;4.43;1.42;;;;;;;;;;5025328;28;20675;-61
2023/03/17 10:35:27;;;;;;;3.45;1.50;;;;;;;;;;5024224;28;22316;-61
2023/03/17 10:37:54;;;;;;;4.03;1.38;;;;;;;;;;5022725;28;20123;-63
2023/03/17 10:40:25;;;;;;;3.35;1.25;;;;;;;;;;5037078;28;20041;-62
2023/03/17 10:42:53;;;;;;;7.57;1.83;;;;;;;;;;5025226;28;20050;-60
2023/03/17 10:45:34;;;;;;;2.92;1.38;;;;;;;;;;5024266;28;20033;-61
2023/03/17 10:48:03;;;;;;;7.40;1.73;;;;;;;;;;5018238;28;20581;-60
2023/03/17 10:50:35;;;;;;;5.82;1.58;;;;;;;;;;5024709;28;20069;-61
2023/03/17 10:53:09;;;;;;;2.92;1.08;;;;;;;;;;5024730;28;20399;-62
2023/03/17 10:55:48;;;;;;;2.13;1.10;;;;;;;;;;5026281;28;20143;-61
2023/03/17 10:58:18;;;;;;;2.13;0.98;;;;;;;;;;5026030;28;20065;-59
2023/03/17 11:00:51;;;;;;;5.25;1.50;;;;;;;;;;5025970;28;20036;-59
2023/03/17 11:03:21;;;;;;;4.80;1.38;;;;;;;;;;5025758;28;20039;-59
2023/03/17 11:06:00;;;;;;;2.63;1.13;;;;;;;;;;5026083;28;20106;-58
2023/03/17 11:08:30;;;;;;;2.65;1.10;;;;;;;;;;5024176;28;20037;-60
2023/03/17 11:10:57;;;;;;;2.65;0.90;;;;;;;;;;5024792;28;20128;-61
2023/03/17 11:13:29;;;;;;;9.85;1.40;;;;;;;;;;5025580;28;20048;-61
2023/03/17 11:16:10;;;;;;;2.83;1.05;;;;;;;;;;5024181;28;20054;-63
2023/03/17 11:18:38;;;;;;;8.25;1.48;;;;;;;;;;5024031;28;20056;-64
2023/03/17 11:21:12;;;;;;;11.25;2.25;;;;;;;;;;5025712;28;20041;-60
2023/03/17 11:23:38;;;;;;;4.43;1.38;;;;;;;;;;5023426;28;20390;-60
2023/03/17 11:26:05;;;;;;;13.32;1.83;;;;;;;;;;5025662;28;20041;-61
2023/03/17 11:28:35;;;;;;;7.78;2.03;;;;;;;;;;5022997;28;20049;-62
2023/03/17 11:31:08;;;;;;;10.38;1.45;;;;;;;;;;5025532;28;20040;-60
2023/03/17 11:33:50;;;;;;;5.03;1.65;;;;;;;;;;5023580;28;20548;-60
2023/03/17 11:36:29;;;;;;;4.47;1.77;;;;;;;;;;5025579;28;20049;-60
2023/03/17 11:39:03;;;;;;;8.18;1.65;;;;;;;;;;5024110;28;20147;-62
2023/03/17 11:41:40;;;;;;;5.18;1.50;;;;;;;;;;5024071;28;20033;-61
2023/03/17 11:44:17;;;;;;;6.60;1.38;;;;;;;;;;5023068;28;20041;-60
2023/03/17 11:46:51;;;;;;;8.50;2.08;;;;;;;;;;5025532;28;20156;-63
2023/03/17 11:49:33;;;;;;;11.73;1.60;;;;;;;;;;5035216;28;20037;-65
2023/03/17 11:52:20;;;;;;;2.20;1.00;;;;;;;;;;5024847;28;20394;-60
2023/03/17 11:54:47;;;;;;;4.00;1.52;;;;;;;;;;5022037;28;20124;-59
2023/03/17 11:57:17;;;;;;;9.07;2.20;;;;;;;;;;5022047;28;20038;-62
2023/03/17 12:00:02;;;;;;;20.38;1.52;;;;;;;;;;5022980;28;20061;-63
2023/03/17 12:02:52;;;;;;;3.45;1.48;;;;;;;;;;5023553;28;20213;-60
2023/03/17 12:05:22;;;;;;;11.57;1.88;;;;;;;;;;5021898;28;20519;-60
2023/03/17 12:07:51;;;;;;;11.90;2.05;;;;;;;;;;5034413;28;20040;-62
2023/03/17 12:10:27;;;;;;;6.93;2.25;;;;;;;;;;5034065;28;20039;-66
2023/03/17 12:13:00;;;;;;;21.92;2.75;;;;;;;;;;5015392;28;20095;-59
2023/03/17 12:15:43;;;;;;;4.60;1.25;;;;;;;;;;5023130;28;20135;-63
2023/03/17 12:18:18;;;;;;;2.13;1.00;;;;;;;;;;5024958;28;20429;-58
2023/03/17 12:20:47;;;;;;;3.45;1.58;;;;;;;;;;5022602;28;20037;-63
2023/03/17 12:23:20;;;;;;;15.98;1.65;;;;;;;;;;5023487;28;20037;-61
2023/03/17 12:25:56;;;;;;;2.88;1.30;;;;;;;;;;5025264;28;20041;-61
2023/03/17 12:28:27;;;;;;;9.57;1.77;;;;;;;;;;5021532;28;20038;-59
2023/03/17 12:31:15;;;;;;;12.63;1.90;;;;;;;;;;5023049;28;20903;-61
2023/03/17 12:34:00;;;;;;;9.45;1.88;;;;;;;;;;5024323;28;20046;-61
2023/03/17 12:36:28;;;;;;;12.88;2.83;;;;;;;;;;5024360;28;20152;-64
2023/03/17 12:39:04;;;;;;;5.55;1.40;;;;;;;;;;5024801;28;22577;-60
2023/03/17 12:41:37;;;;;;;2.63;1.33;;;;;;;;;;5023161;28;20148;-63
2023/03/17 12:44:10;;;;;;;1.92;1.00;;;;;;;;;;5022312;28;20767;-60
2023/03/17 12:46:56;;;;;;;15.02;2.00;;;;;;;;;;5023883;28;20048;-65
2023/03/17 12:50:01;;;;;;;9.65;2.30;;;;;;;;;;5027072;28;20123;-62
2023/03/17 12:52:46;;;;;;;13.98;2.47;;;;;;;;;;4982693;28;20132;-61
2023/03/17 12:55:16;;;;;;;5.43;2.22;;;;;;;;;;5025349;28;20045;-64
2023/03/17 12:57:47;;;;;;;3.78;1.67;;;;;;;;;;5059669;28;20597;-63
2023/03/17 13:00:33;;;;;;;24.13;2.65;;;;;;;;;;5022286;28;20037;-60
2023/03/17 13:03:29;;;;;;;3.53;1.38;;;;;;;;;;5027586;28;20095;-62
2023/03/17 13:06:03;;;;;;;2.25;1.45;;;;;;;;;;5015653;28;20128;-60
2023/03/17 13:08:42;;;;;;;20.20;1.95;;;;;;;;;;5028372;28;20045;-62
2023/03/17 13:11:15;;;;;;;7.50;2.63;;;;;;;;;;5027878;28;20598;-61
2023/03/17 13:13:53;;;;;;;4.07;1.50;;;;;;;;;;5028993;28;20116;-61
2023/03/17 13:16:31;;;;;;;4.82;1.80;;;;;;;;;;5026278;28;20049;-63
2023/03/17 13:19:12;;;;;;;6.07;1.77;;;;;;;;;;5029010;28;20498;-63
2023/03/17 13:21:44;;;;;;;13.07;1.50;;;;;;;;;;5026220;28;20965;-61
2023/03/17 13:24:19;;;;;;;12.13;2.88;;;;;;;;;;5027852;28;20352;-60
2023/03/17 13:26:52;;;;;;;7.13;1.95;;;;;;;;;;5027662;28;20041;-61
2023/03/17 13:29:26;;;;;;;3.33;1.80;;;;;;;;;;5039378;28;20136;-60
2023/03/17 13:32:13;;;;;;;4.78;1.85;;;;;;;;;;5022549;28;20040;-63
2023/03/17 13:34:51;;;;;;;13.85;2.28;;;;;;;;;;5027901;28;20135;-62
2023/03/17 13:37:25;;;;;;;8.15;2.88;;;;;;;;;;5038811;28;20487;-61
2023/03/17 13:39:52;;;;;;;12.93;2.03;;;;;;;;;;5030477;28;20089;-61
2023/03/17 13:42:27;;;;;;;6.85;2.20;;;;;;;;;;5026798;28;20186;-63
2023/03/17 13:45:07;;;;;;;3.33;1.58;;;;;;;;;;5027793;28;20048;-59
2023/03/17 13:47:36;;;;;;;9.20;1.98;;;;;;;;;;5025931;28;20091;-61
2023/03/17 13:50:15;;;;;;;6.65;1.92;;;;;;;;;;5025266;28;20050;-62
2023/03/17 13:52:46;;;;;;;6.07;2.40;;;;;;;;;;5025582;28;20041;-60
2023/03/17 13:55:22;;;;;;;14.35;2.25;;;;;;;;;;5028043;28;20076;-60
2023/03/17 13:58:07;;;;;;;7.28;1.83;;;;;;;;;;5025216;28;20045;-60
2023/03/17 14:00:36;;;;;;;20.35;2.53;;;;;;;;;;5025779;28;20041;-62
2023/03/17 14:03:26;;;;;;;7.00;2.35;;;;;;;;;;5028089;28;20037;-62
2023/03/17 14:05:54;;;;;;;11.82;2.42;;;;;;;;;;5017434;28;20049;-61
2023/03/17 14:08:29;;;;;;;4.72;2.05;;;;;;;;;;5026249;28;20041;-63
2023/03/17 14:11:01;;;;;;;4.93;1.73;;;;;;;;;;5027560;28;20045;-62
2023/03/17 14:13:30;;;;;;;31.45;3.50;;;;;;;;;;5026342;28;20038;-60
2023/03/17 14:16:04;;;;;;;5.95;2.50;;;;;;;;;;5027458;28;20045;-59
2023/03/17 14:18:36;;;;;;;10.50;4.05;;;;;;;;;;5026922;28;20045;-60
2023/03/17 14:21:23;;;;;;;20.73;2.80;;;;;;;;;;5057168;28;20513;-60
2023/03/17 14:23:55;;;;;;;9.40;2.72;;;;;;;;;;5060047;28;20036;-63
2023/03/17 14:26:23;;;;;;;12.35;3.40;;;;;;;;;;5043027;28;20048;-60
2023/03/17 14:28:49;;;;;;;11.55;3.08;;;;;;;;;;5058086;28;20534;-61
2023/03/17 14:31:23;;;;;;;14.93;2.72;;;;;;;;;;5058273;28;20075;-60
2023/03/17 14:33:52;;;;;;;7.43;2.20;;;;;;;;;;5058336;28;20046;-60
2023/03/17 14:36:19;;;;;;;8.45;2.88;;;;;;;;;;5057836;28;20171;-60
2023/03/17 14:38:50;;;;;;;8.80;2.90;;;;;;;;;;5059349;28;20060;-61
2023/03/17 14:41:18;;;;;;;11.73;2.38;;;;;;;;;;5057328;28;20044;-59
2023/03/17 14:43:45;;;;;;;13.15;2.92;;;;;;;;;;5058688;28;20036;-59
2023/03/17 14:46:15;;;;;;;6.10;2.60;;;;;;;;;;5039284;28;20716;-59
2023/03/17 14:48:42;;;;;;;5.20;2.38;;;;;;;;;;5055796;28;20467;-61
2023/03/17 14:51:24;;;;;;;5.70;2.25;;;;;;;;;;5057780;28;20056;-58
2023/03/17 14:53:51;;;;;;;6.75;2.72;;;;;;;;;;5058647;28;20040;-60
2023/03/17 14:56:26;;;;;;;5.57;2.17;;;;;;;;;;5057326;28;20513;-64